Time;durP1;ratioP1;P1;durP2;ratioP2;P2;SDS_P1;SDS_P2;PMS_P1;PMS_P2;Temp;Humidity;BMP_temperature;BMP_pressure;BME280_temperature;BME280_humidity;BME280_pressure;Samples;Min_cycle;Max_cycle;Signal;HPM_P1;HPM_P2
2022/08/04 00:00:23;;;;;;;10.52;5.03;;;;;;;21.98;96.17;101197.00;5028723;28;20025;-65
2022/08/04 00:02:58;;;;;;;6.32;4.90;;;;;;;21.95;96.29;101189.09;5028792;28;20025;-64
2022/08/04 00:05:34;;;;;;;8.95;5.32;;;;;;;21.92;96.11;101189.13;5028416;28;20530;-64
2022/08/04 00:08:41;;;;;;;13.05;5.88;;;;;;;21.87;96.53;101193.59;5028680;28;20472;-65
2022/08/04 00:11:09;;;;;;;7.47;4.95;;;;;;;21.80;96.88;101187.50;5015776;28;20037;-64
2022/08/04 00:13:40;;;;;;;8.25;5.20;;;;;;;21.76;96.89;101188.38;5027927;28;20049;-64
2022/08/04 00:16:08;;;;;;;6.32;4.90;;;;;;;21.70;97.33;101178.75;5027189;28;20393;-65
2022/08/04 00:19:00;;;;;;;8.07;5.40;;;;;;;21.66;97.75;101184.97;5028238;28;20053;-65
2022/08/04 00:21:26;;;;;;;6.15;4.50;;;;;;;21.61;98.13;101174.44;5024533;28;20048;-64
2022/08/04 00:23:55;;;;;;;8.40;4.68;;;;;;;21.57;97.86;101178.88;5028412;28;20533;-65
2022/08/04 00:26:20;;;;;;;7.63;5.05;;;;;;;21.53;98.42;101173.66;5028045;28;20033;-65
2022/08/04 00:28:47;;;;;;;9.48;4.72;;;;;;;21.52;98.24;101175.41;5028008;28;20036;-65
2022/08/04 00:31:14;;;;;;;8.93;4.80;;;;;;;21.48;98.40;101174.56;5028225;28;20478;-64
2022/08/04 00:33:43;;;;;;;8.48;4.72;;;;;;;21.46;98.72;101171.03;5027753;28;20029;-64
2022/08/04 00:36:10;;;;;;;8.05;4.57;;;;;;;21.44;98.60;101172.81;5028387;28;20037;-65
2022/08/04 00:38:39;;;;;;;9.27;4.95;;;;;;;21.40;99.07;101164.97;5027490;28;20025;-65
2022/08/04 00:41:40;;;;;;;6.88;4.05;;;;;;;21.34;99.26;101160.59;5028185;28;20032;-65
2022/08/04 00:44:21;;;;;;;;;;;;;;;21.31;99.48;101155.38;5028391;28;20028;-65
2022/08/04 00:46:54;;;;;;;;;;;;;;;21.28;99.34;101151.00;5027774;28;19920;-65
2022/08/04 00:49:42;;;;;;;;;;;;;;;21.27;99.28;101159.78;5015849;28;20477;-65
2022/08/04 00:52:16;;;;;;;;;;;;;;;21.26;98.56;101160.69;5028565;28;19913;-65
2022/08/04 00:54:44;;;;;;;;;;;;;;;21.24;98.50;101152.78;5028495;28;19921;-65
2022/08/04 00:57:12;;;;;;;;;;;;;;;21.25;97.93;101156.28;5028193;28;19913;-65
2022/08/04 00:59:37;;;;;;;;;;;;;;;21.24;97.68;101154.56;5028117;28;19970;-64
2022/08/04 01:02:10;;;;;;;;;;;;;;;21.26;96.90;101151.91;5027552;28;20369;-65
2022/08/04 01:04:56;;;;;;;;;;;;;;;21.24;96.81;101154.56;5014866;28;19909;-65
2022/08/04 01:07:21;;;;;;;;;;;;;;;21.26;95.98;101151.91;5027545;28;19916;-65
2022/08/04 01:10:02;;;;;;;;;;;;;;;21.24;96.05;101149.28;5027529;28;19913;-64
2022/08/04 01:12:27;;;;;;;;;;;;;;;21.24;96.10;101141.38;5027849;28;20008;-65
2022/08/04 01:15:04;;;;;;;;;;;;;;;21.25;94.57;101145.75;5027310;28;19970;-65
2022/08/04 01:17:39;;;;;;;;;;;;;;;21.25;94.94;101135.22;5028237;28;19917;-64
2022/08/04 01:20:08;;;;;;;;;;;;;;;21.23;94.76;101136.97;5027247;28;20296;-65
2022/08/04 01:22:33;;;;;;;;;;;;;;;21.24;94.44;101136.09;5028009;28;20176;-65
2022/08/04 01:25:07;;;;;;;;;;;;;;;21.24;93.84;101134.31;5027510;28;19917;-65
2022/08/04 01:27:48;;;;;;;;;;;;;;;21.26;93.69;101130.81;5027178;28;19908;-65
2022/08/04 01:30:13;;;;;;;;;;;;;;;21.27;93.22;101138.72;5027365;28;19913;-65
2022/08/04 01:33:01;;;;;;;;;;;;;;;21.30;92.44;101132.56;5027224;28;19913;-65
2022/08/04 01:35:26;;;;;;;;;;;;;;;21.32;91.51;101130.75;5027097;28;19924;-64
2022/08/04 01:38:12;;;;;;;;;;;;;;;21.33;91.32;101125.50;5027864;28;19909;-64
2022/08/04 01:40:38;;;;;;;;;;;;;;;21.34;90.68;101119.31;5027225;28;19909;-65
2022/08/04 01:43:03;;;;;;;;;;;;;;;21.35;90.43;101121.06;5027719;28;19916;-65
2022/08/04 01:45:29;;;;;;;;;;;;;;;21.37;90.20;101115.81;5027411;28;19913;-65
2022/08/04 01:47:55;;;;;;;;;;;;;;;21.38;89.38;101120.19;5027737;28;19923;-65
2022/08/04 01:50:21;;;;;;;;;;;;;;;21.40;89.51;101109.63;5026547;28;19979;-64
2022/08/04 01:52:47;;;;;;;;;;;;;;;21.40;88.95;101109.63;5027715;28;20417;-64
2022/08/04 01:55:13;;;;;;;;;;;;;;;21.41;88.60;101120.13;5027736;28;19920;-64
2022/08/04 01:57:43;;;;;;;;;;;;;;;21.43;88.15;101112.22;5027446;28;20401;-65
2022/08/04 02:00:09;;;;;;;;;;;;;;;21.46;87.41;101106.94;5027328;28;19909;-65
2022/08/04 02:02:34;;;;;;;;;;;;;;;21.48;87.43;101113.94;5027267;28;20452;-65
2022/08/04 02:04:59;;;;;;;;;;;;;;;21.49;87.51;101109.53;5026554;28;19970;-65
2022/08/04 02:07:54;;;;;;;;;;;;;;;21.51;86.46;101104.25;5027355;28;19913;-65
2022/08/04 02:10:26;;;;;;;;;;;;;;;21.53;86.20;101103.34;5022307;28;19913;-65
2022/08/04 02:12:52;;;;;;;;;;;;;;;21.53;86.16;101107.75;5027208;28;20250;-65
2022/08/04 02:15:17;;;;;;;;;;;;;;;21.53;86.22;101102.47;5026518;28;19963;-65
2022/08/04 02:18:01;;;;;;;;;;;;;;;21.51;86.53;101098.97;5027346;28;19931;-65
2022/08/04 02:20:46;;;;;;;;;;;;;;;21.49;86.69;101101.63;5014967;28;19913;-65
2022/08/04 02:23:25;;;;;;;;;;;;;;;21.46;86.78;101101.66;5026592;28;20320;-65
2022/08/04 02:25:57;;;;;;;;;;;;;;;21.44;86.84;101096.38;5026628;28;19925;-65
2022/08/04 02:28:41;;;;;;;;;;;;;;;21.42;86.83;101092.03;5026573;28;20303;-64
2022/08/04 02:31:17;;;;;;;;;;;;;;;21.39;87.11;101094.72;5027114;28;20361;-65
2022/08/04 02:33:50;;;;;;;;;;;;;;;21.35;86.95;101089.44;5026982;28;19909;-65
2022/08/04 02:36:20;;;;;;;;;;;;;;;21.34;87.16;101089.47;5026729;28;20010;-64
2022/08/04 02:38:52;;;;;;;;;;;;;;;21.32;87.34;101086.84;5028147;28;20381;-65
2022/08/04 02:41:18;;;;;;;;;;;;;;;21.30;87.15;101091.25;5030602;28;19913;-65
2022/08/04 02:43:46;;;;;;;;;;;;;;;21.28;87.14;101087.75;5030221;28;19913;-65
2022/08/04 02:46:12;;;;;;;;;;;;;;;21.25;87.08;101082.50;5029923;28;20276;-64
2022/08/04 02:48:39;;;;;;;;;;;;;;;21.23;87.12;101087.81;5030555;28;19913;-64
2022/08/04 02:51:04;;;;;;;;;;;;;;;21.21;87.33;101088.69;5030408;28;19913;-65
2022/08/04 02:53:32;;;;;;;;;;;;;;;21.20;87.66;101073.78;5030528;28;20344;-65
2022/08/04 02:55:57;;;;;;;;;;;;;;;21.19;87.80;101079.94;5029944;28;19913;-65
2022/08/04 02:58:22;;;;;;;;;;;;;;;21.17;87.62;101079.09;5029650;28;20265;-64
2022/08/04 03:00:49;;;;;;;;;;;;;;;21.16;87.56;101066.78;5029947;28;20379;-65
2022/08/04 03:03:20;;;;;;;;;;;;;;;21.14;87.30;101068.56;5030384;28;20035;-64
2022/08/04 03:05:51;;;;;;;;;;;;;;;21.14;87.47;101058.03;5030270;28;19916;-65
2022/08/04 03:08:35;;;;;;;;;;;;;;;21.13;87.35;101061.53;5030157;28;19913;-64
2022/08/04 03:11:09;;;;;;;;;;;;;;;21.11;87.21;101065.06;5029817;28;19916;-65
2022/08/04 03:13:44;;;;;;;;;;;;;;;21.10;87.11;101058.03;5029509;28;19966;-64
2022/08/04 03:16:28;;;;;;;;;;;;;;;21.09;87.07;101058.94;5029337;28;19913;-64
2022/08/04 03:19:11;;;;;;;;;;;;;;;21.09;86.95;101051.03;5018092;28;20027;-65
2022/08/04 03:21:59;;;;;;;;;;;;;;;21.07;87.03;101057.19;5029545;28;20292;-65
2022/08/04 03:24:33;;;;;;;;;;;;;;;21.06;86.85;101048.44;5029602;28;20286;-64
2022/08/04 03:27:01;;;;;;;;;;;;;;;21.04;86.97;101052.84;5029638;28;19916;-64
2022/08/04 03:29:45;;;;;;;;;;;;;;;21.01;86.93;101052.88;5030034;28;20055;-65
2022/08/04 03:32:20;;;;;;;;;;;;;;;20.98;87.52;101050.25;5029624;28;19951;-65
2022/08/04 03:34:45;;;;;;;;;;;;;;;21.00;87.22;101056.38;5029077;28;19916;-65
2022/08/04 03:37:18;;;;;;;;;;;;;;;21.02;87.17;101064.28;5029124;28;19909;-65
2022/08/04 03:39:50;;;;;;;;;;;;;;;20.99;87.38;101078.34;5029757;28;20379;-65
2022/08/04 03:42:34;;;;;;;;;;;;;;;20.95;88.24;101074.88;5029173;28;19920;-65
2022/08/04 03:45:17;;;;;;;;;;;;;;;20.92;88.52;101074.84;5028900;28;20012;-65
2022/08/04 03:47:48;;;;;;;;;;;;;;;20.85;88.50;101068.75;5016808;28;19915;-64
2022/08/04 03:50:29;;;;;;;;;;;;;;;20.77;88.73;101062.69;5029222;28;19920;-65
2022/08/04 03:53:09;;;;;;;;;;;;;;;20.71;89.25;101054.81;5029484;28;19972;-64
2022/08/04 03:55:53;;;;;;;;;;;;;;;20.68;89.33;101055.72;5028459;28;19936;-65
2022/08/04 03:58:21;;;;;;;;;;;;;;;20.67;89.68;101064.47;5027445;28;19913;-64
2022/08/04 04:00:52;;;;;;;;;;;;;;;20.66;89.70;101075.03;5026860;28;19919;-64
2022/08/04 04:03:23;;;;;;;;;;;;;;;20.67;89.12;101090.81;5026855;28;19963;-64
2022/08/04 04:05:48;;;;;;;;;;;;;;;20.68;89.23;101089.94;5027227;28;20356;-64
2022/08/04 04:08:28;;;;;;;;;;;;;;;20.70;88.00;101095.19;5025767;28;19912;-65
2022/08/04 04:10:53;;;;;;;;;;;;;;;20.74;88.29;101096.94;5026750;28;20351;-64
2022/08/04 04:13:18;;;;;;;;;;;;;;;20.77;87.48;101089.00;5028031;28;19948;-65
2022/08/04 04:16:02;;;;;;;;;;;;;;;20.79;88.44;101103.03;5028586;28;20013;-65
2022/08/04 04:18:46;;;;;;;;;;;;;;;20.82;88.38;101103.00;5028268;28;19920;-64
2022/08/04 04:21:29;;;;;;;;;;;;;;;20.82;90.05;101099.50;5028356;28;20002;-64
2022/08/04 04:24:13;;;;;;;;;;;;;;;20.80;90.36;101099.50;5016374;28;19920;-65
2022/08/04 04:26:55;;;;;;;;;;;;;;;20.79;90.46;101104.78;5028908;28;19908;-65
2022/08/04 04:29:29;;;;;;;;;;;;;;;20.77;90.37;101102.16;5028498;28;20361;-65
2022/08/04 04:32:06;;;;;;;;;;;;;;;20.73;91.47;101096.06;5028311;28;19920;-65
2022/08/04 04:34:39;;;;;;;;;;;;;;;20.72;92.04;101098.69;5028222;28;19909;-64
2022/08/04 04:37:08;;;;;;;;;;;;;;;20.69;92.26;101103.94;5028519;28;19919;-64
2022/08/04 04:39:51;;;;;;;;;;;;;;;20.69;92.55;101103.94;5028588;28;20022;-64
2022/08/04 04:42:31;;;;;;;;;;;;;;;20.66;92.97;101103.97;5027952;28;19920;-65
2022/08/04 04:44:56;;;;;;;;;;;;;;;20.64;93.18;101101.38;5027400;28;19962;-64
2022/08/04 04:47:40;;;;;;;;;;;;;;;20.64;93.89;101112.78;5028125;28;19955;-64
2022/08/04 04:50:13;;;;;;;;;;;;;;;20.67;93.77;101103.13;5027942;28;19923;-65
2022/08/04 04:52:47;;;;;;;;;;;;;;;20.69;94.38;101101.31;5028150;28;19913;-64
2022/08/04 04:55:27;;;;;;;;;;;;;;;20.73;94.52;101100.44;5028297;28;20007;-64
2022/08/04 04:57:55;;;;;;;;;;;;;;;20.77;94.75;101112.69;5015512;28;19952;-65
2022/08/04 05:00:22;;;;;;;;;;;;;;;20.80;94.50;101106.53;5028124;28;19960;-64
2022/08/04 05:03:07;;;;;;;;;;;;;;;20.81;94.49;101109.16;5027649;28;19909;-64
2022/08/04 05:05:40;;;;;;;;;;;;;;;20.84;94.73;101117.03;5027954;28;19913;-64
2022/08/04 05:08:14;;;;;;;;;;;;;;;20.88;95.23;101120.53;5027679;28;19963;-65
2022/08/04 05:10:47;;;;;;;;;;;;;;;20.92;95.91;101116.13;5028484;28;19913;-64
2022/08/04 05:13:31;;;;;;;;;;;;;;;20.94;95.68;101119.63;5027182;28;19913;-65
2022/08/04 05:15:59;;;;;;;;;;;;;;;20.96;95.94;101123.13;5027869;28;20384;-65
2022/08/04 05:18:29;;;;;;;;;;;;;;;20.98;96.52;101118.72;5027473;28;19940;-65
2022/08/04 05:20:57;;;;;;;;;;;;;;;21.01;96.03;101110.81;5027900;28;19951;-65
2022/08/04 05:23:25;;;;;;;;;;;;;;;21.04;95.43;101109.91;5027866;28;19917;-65
2022/08/04 05:26:19;;;;;;;;;;;;;;;21.08;95.68;101107.22;5028162;28;19913;-64
2022/08/04 05:28:50;;;;;;;;;;;;;;;21.13;96.97;101111.59;5012515;28;20293;-65
2022/08/04 05:31:19;;;;;;;;;;;;;;;21.17;96.77;101114.22;5027548;28;20016;-65
2022/08/04 05:33:55;;;;;;;;;;;;;;;21.23;97.80;101118.53;5027875;28;19915;-65
2022/08/04 05:36:22;;;;;;;;;;;;;;;21.28;99.20;101118.50;5027322;28;19924;-65
2022/08/04 05:38:51;;;;;;;;;;;;;;;21.29;97.16;101115.88;5026835;28;19952;-65
2022/08/04 05:41:17;;;;;;;;;;;;;;;21.33;96.83;101109.69;5027391;28;19999;-65
2022/08/04 05:43:44;;;;;;;;;;;;;;;21.40;95.42;101113.13;5027425;28;20001;-65
2022/08/04 05:46:10;;;;;;;;;;;;;;;21.52;95.17;101109.50;5026966;28;19987;-65
2022/08/04 05:48:35;;;;;;;;;;;;;;;21.64;93.50;101105.00;5027526;28;19920;-64
2022/08/04 05:51:02;;;;;;;;;;;;;;;21.74;93.12;101109.28;5027114;28;19979;-65
2022/08/04 05:53:28;;;;;;;;;;;;;;;21.81;92.69;101097.81;5027786;28;19913;-65
2022/08/04 05:55:54;;;;;;;;;;;;;;;21.90;91.06;101101.22;5022296;28;19943;-65
2022/08/04 05:58:19;;;;;;;;;;;;;;;21.98;91.16;101102.03;5027597;28;20273;-65
2022/08/04 06:00:45;;;;;;;;;;;;;;;22.07;90.88;101101.06;5027134;28;19909;-65
2022/08/04 06:03:11;;;;;;;;;;;;;;;22.15;89.63;101095.66;5027687;28;20321;-65
2022/08/04 06:05:37;;;;;;;;;;;;;;;22.24;89.48;101095.56;5027392;28;19909;-65
2022/08/04 06:08:03;;;;;;;;;;;;;;;22.30;89.72;101100.75;5021344;28;20006;-65
2022/08/04 06:10:33;;;;;;;;;;;;;;;22.33;90.09;101096.31;5027474;28;20408;-65
2022/08/04 06:13:01;;;;;;;;;;;;;;;22.35;89.10;101097.16;5027123;28;19920;-65
2022/08/04 06:15:27;;;;;;;;;;;;;;;22.39;89.63;101104.16;5031114;28;20020;-65
2022/08/04 06:17:54;;;;;;;;;;;;;;;22.42;90.03;101101.47;5031090;28;20003;-65
2022/08/04 06:20:20;;;;;;;;;;;;;;;22.44;89.93;101097.06;5030934;28;19971;-65
2022/08/04 06:22:48;;;;;;;;;;;;;;;22.46;89.52;101095.25;5031052;28;19909;-65
2022/08/04 06:25:15;;;;;;;;;;;;;;;22.50;88.55;101094.34;5018172;28;19909;-65
2022/08/04 06:27:41;;;;;;;;;;;;;;;22.59;88.69;101095.09;5031186;28;19952;-65
2022/08/04 06:30:12;;;;;;;;;;;;;;;22.76;87.88;101102.78;5031115;28;20289;-65
2022/08/04 06:32:46;;;;;;;;;;;;;;;23.00;87.25;101103.31;5031293;28;19970;-65
2022/08/04 06:35:13;;;;;;;;;;;;;;;23.23;85.29;101102.94;5030161;28;20003;-65
2022/08/04 06:37:39;;;;;;;;;;;;;;;23.48;84.71;101101.66;5030385;28;19920;-65
2022/08/04 06:40:06;;;;;;;;;;;;;;;23.64;82.42;101110.16;5030454;28;19909;-65
2022/08/04 06:42:32;;;;;;;;;;;;;;;23.87;82.38;101114.16;5031075;28;20171;-65
2022/08/04 06:44:58;;;;;;;;;;;;;;;24.09;82.83;101113.72;5030589;28;20368;-65
2022/08/04 06:47:23;;;;;;;;;;;;;;;24.37;82.82;101115.81;5030847;28;19987;-65
2022/08/04 06:49:50;;;;;;;;;;;;;;;24.67;82.81;101128.41;5020775;28;20012;-65
2022/08/04 06:52:16;;;;;;;;;;;;;;;24.88;81.16;101119.06;5028189;28;20440;-65
2022/08/04 06:54:43;;;;;;;;;;;;;;;25.15;80.88;101116.69;5030332;28;19963;-65
2022/08/04 06:57:09;;;;;;;;;;;;;;;25.39;79.39;101119.63;5030611;28;20308;-66
2022/08/04 06:59:35;;;;;;;;;;;;;;;25.58;77.46;101124.44;5030656;28;20284;-65
2022/08/04 07:02:00;;;;;;;;;;;;;;;25.70;74.46;101117.09;5030228;28;19917;-65
2022/08/04 07:04:26;;;;;;;;;;;;;;;25.74;73.78;101118.75;5030200;28;20258;-65
2022/08/04 07:06:52;;;;;;;;;;;;;;;25.70;72.95;101122.41;5030354;28;19924;-65
2022/08/04 07:09:17;;;;;;;;;;;;;;;25.62;73.97;101119.91;5030246;28;20368;-65
2022/08/04 07:11:43;;;;;;;;;;;;;;;25.49;74.29;101120.25;5030008;28;19917;-65
2022/08/04 07:14:09;;;;;;;;;;;;;;;25.40;75.26;101123.16;5029513;28;19921;-65
2022/08/04 07:16:35;;;;;;;;;;;;;;;25.31;76.41;101121.63;5029848;28;19943;-65
2022/08/04 07:19:00;;;;;;;;;;;;;;;25.34;78.07;101116.22;5029949;28;19917;-65
2022/08/04 07:21:26;;;;;;;;;;;;;;;25.43;77.33;101120.41;5029517;28;20397;-65
2022/08/04 07:23:51;;;;;;;;;;;;;;;25.54;76.27;101118.34;5029452;28;19931;-65
2022/08/04 07:26:18;;;;;;;;;;;;;;;25.57;76.65;101114.75;5030102;28;20361;-65
2022/08/04 07:28:44;;;;;;;;;;;;;;;25.69;74.87;101126.81;5029921;28;20411;-65
2022/08/04 07:31:10;;;;;;;;;;;;;;;25.80;73.03;101125.69;5029408;28;19917;-65
2022/08/04 07:33:36;;;;;;;;;;;;;;;25.87;72.60;101138.72;5030224;28;19931;-65
2022/08/04 07:36:02;;;;;;;;;;;;;;;25.99;72.96;101134.88;5029746;28;20346;-65
2022/08/04 07:38:27;;;;;;;;;;;;;;;26.18;74.31;101144.06;5029839;28;20276;-65
2022/08/04 07:40:53;;;;;;;;;;;;;;;26.28;72.67;101144.69;5029536;28;19920;-65
2022/08/04 07:43:18;;;;;;;;;;;;;;;26.45;72.33;101146.84;5029397;28;20303;-65
2022/08/04 07:45:44;;;;;;;;;;;;;;;26.74;70.03;101138.00;5029301;28;19913;-65
2022/08/04 07:48:09;;;;;;;;;;;;;;;27.01;69.15;101134.47;5029725;28;19913;-65
2022/08/04 07:50:37;;;;;;;;;;;;;;;27.32;68.10;101138.81;5029403;28;19909;-65
2022/08/04 07:53:02;;;;;;;;;;;;;;;27.60;66.33;101136.09;5029365;28;19912;-65
2022/08/04 07:55:28;;;;;;;;;;;;;;;27.88;67.06;101135.16;5029391;28;19951;-65
2022/08/04 07:57:54;;;;;;;;;;;;;;;28.11;64.56;101136.06;5029222;28;19913;-65
2022/08/04 08:00:19;;;;;;;;;;;;;;;28.42;64.69;101134.94;5029499;28;20287;-65
2022/08/04 08:02:45;;;;;;;;;;;;;;;28.65;62.57;101125.16;5029180;28;19944;-65
2022/08/04 08:05:12;;;;;;;;;;;;;;;28.80;61.53;101139.66;5029128;28;19917;-66
2022/08/04 08:07:37;;;;;;;;;;;;;;;28.93;59.22;101144.50;5028525;28;19915;-65
2022/08/04 08:10:03;;;;;;;;;;;;;;;29.15;59.85;101141.84;5028515;28;20284;-65
2022/08/04 08:12:28;;;;;;;;;;;;;;;29.32;58.93;101145.59;5027218;28;19909;-65
2022/08/04 08:14:53;;;;;;;;;;;;;;;29.49;58.87;101147.53;5027998;28;20423;-65
2022/08/04 08:17:19;;;;;;;;;;;;;;;29.71;58.49;101154.63;5028521;28;19921;-65
2022/08/04 08:19:44;;;;;;;;;;;;;;;29.69;56.79;101160.03;5028737;28;19913;-66
2022/08/04 08:22:09;;;;;;;;;;;;;;;29.91;57.11;101153.75;5028757;28;19920;-65
2022/08/04 08:24:35;;;;;;;;;;;;;;;30.09;57.16;101161.84;5029230;28;20416;-65
2022/08/04 08:27:03;;;;;;;;;;;;;;;30.20;57.22;101158.69;5029006;28;19971;-65
2022/08/04 08:29:28;;;;;;;;;;;;;;;30.41;56.92;101163.97;5028874;28;20222;-65
2022/08/04 08:31:54;;;;;;;;;;;;;;;30.50;56.12;101160.00;5028969;28;19955;-65
2022/08/04 08:34:19;;;;;;;;;;;;;;;30.58;56.83;101156.97;5028953;28;19913;-65
2022/08/04 08:36:47;;;;;;;;;;;;;;;30.66;55.49;101158.31;5028131;28;19916;-65
2022/08/04 08:39:15;;;;;;;;;;;;;;;30.62;54.96;101164.75;5029065;28;20387;-65
2022/08/04 08:41:59;;;;;;;;;;;;;;;30.67;56.29;101165.38;5028279;28;19936;-65
2022/08/04 08:44:43;;;;;;;;;;;;;;;30.48;55.45;101172.56;5016939;28;19909;-66
2022/08/04 08:47:33;;;;;;;;;;;;;;;30.18;55.64;101177.44;5028405;28;19959;-65
2022/08/04 08:50:05;;;;;;;;;;;;;;;30.00;56.43;101184.50;5028582;28;19909;-65
2022/08/04 08:52:46;;;;;;;;;;;;;;;29.92;55.92;101173.28;5027648;28;20015;-65
2022/08/04 08:55:41;;;;;;;;;;;;;;;30.03;58.09;101183.47;5028143;28;19920;-66
2022/08/04 08:58:22;;;;;;;;;;;;;;;30.16;56.33;101187.34;5005605;28;19921;-66
2022/08/04 09:00:55;;;;;;;;;;;;;;;30.28;55.08;101193.94;5025232;28;19991;-65
2022/08/04 09:03:38;;;;;;;;;;;;;;;30.38;54.45;101197.06;5027393;28;19919;-65
2022/08/04 09:06:16;;;;;;;;;;;;;;;30.53;53.44;101189.25;5027677;28;19952;-65
2022/08/04 09:09:05;;;;;;;;;;;;;;;30.56;53.03;101186.44;5027855;28;19919;-66
2022/08/04 09:11:38;;;;;;;;;;;;;;;30.36;52.98;101198.06;5028467;28;19916;-66
2022/08/04 09:14:17;;;;;;;;;;;;;;;30.47;53.74;101202.91;5027981;28;19916;-66
2022/08/04 09:17:02;;;;;;;;;;;;;;;30.54;52.25;101199.88;5027668;28;19924;-66
2022/08/04 09:19:46;;;;;;;;;;;;;;;30.47;51.75;101205.59;5028121;28;20445;-66
2022/08/04 09:22:15;;;;;;;;;;;;;;;30.41;52.73;101204.94;5015726;28;20276;-65
2022/08/04 09:24:40;;;;;;;;;;;;;;;30.31;53.03;101203.63;5027651;28;19919;-65
2022/08/04 09:27:28;;;;;;;;;;;;;;;30.16;52.85;101195.34;5027550;28;19946;-66
2022/08/04 09:30:02;;;;;;;;;;;;;;;30.01;53.59;101202.25;5007398;28;19996;-66
2022/08/04 09:32:40;;;;;;;;;;;;;;;29.94;53.17;101201.66;5026934;28;19988;-66
2022/08/04 09:35:22;;;;;;;;;;;;;;;29.94;53.20;101206.13;5027316;28;20346;-66
2022/08/04 09:37:56;;;;;;;;;;;;;;;29.82;54.60;101210.22;5027852;28;19915;-66
2022/08/04 09:41:02;;;;;;;;;;;;;;;29.76;53.73;101218.47;5028046;28;19988;-66
2022/08/04 09:43:28;;;;;;;;;;;;;;;29.44;53.96;101218.91;5004379;28;20195;-65
2022/08/04 09:46:03;;;;;;;;;;;;;;;29.25;53.95;101223.19;5004961;28;20353;-66
2022/08/04 09:48:47;;;;;;;;;;;;;;;29.07;55.19;101237.31;5008697;28;19909;-66
2022/08/04 09:51:22;;;;;;;;;;;;;;;28.85;56.10;101244.34;5031532;28;19909;-66
2022/08/04 09:54:10;;;;;;;;;;;;;;;28.75;57.15;101248.25;5031484;28;19916;-66
2022/08/04 09:56:41;;;;;;;;;;;;;;;28.63;54.53;101250.50;5031605;28;19956;-65
2022/08/04 09:59:16;;;;;;;;;;;;;;;28.49;54.31;101243.03;5030757;28;19917;-65
2022/08/04 10:01:42;;;;;;;;;;;;;;;28.38;53.70;101250.53;5031481;28;19919;-65
2022/08/04 10:04:08;;;;;;;;;;;;;;;28.26;54.75;101251.84;5030947;28;19913;-65
2022/08/04 10:06:44;;;;;;;;;;;;;;;28.09;56.10;101263.97;5031086;28;19916;-66
2022/08/04 10:09:42;;;;;;;;;;;;;;;28.01;56.38;101268.69;5031189;28;19916;-66
2022/08/04 10:12:22;;;;;;;;;;;;;;;27.85;57.42;101263.03;5007167;28;19972;-66
2022/08/04 10:14:52;;;;;;;;;;;;;;;27.68;57.59;101256.47;5030735;28;19921;-65
2022/08/04 10:17:26;;;;;;;;;;;;;;;27.50;58.27;101253.50;5031134;28;20349;-65
2022/08/04 10:20:12;;;;;;;;;;;;;;;27.37;59.02;101258.34;5031168;28;20326;-65
2022/08/04 10:22:40;;;;;;;;;;;;;;;27.29;59.60;101292.31;5030606;28;19988;-65
2022/08/04 10:25:23;;;;;;;;;;;;;;;27.16;60.33;101331.69;5031228;28;19912;-65
2022/08/04 10:27:54;;;;;;;;;;;;;;;27.06;61.79;101361.22;5030477;28;19909;-65
2022/08/04 10:30:20;;;;;;;;;;;;;;;27.00;63.27;101361.38;5031056;28;19916;-66
2022/08/04 10:32:57;;;;;;;;;;;;;;;26.81;69.45;101351.28;5031050;28;19920;-65
2022/08/04 10:35:25;;;;;;;;;;;;;;;26.55;73.46;101318.31;5030556;28;19920;-65
2022/08/04 10:38:00;;;;;;;;;;;;;;;26.25;78.24;101337.69;5030558;28;19951;-66
2022/08/04 10:40:39;;;;;;;;;;;;;;;25.99;80.56;101330.41;5030485;28;19956;-65
2022/08/04 10:43:14;;;;;;;;;;;;;;;25.78;82.75;101311.44;5030520;28;20368;-66
2022/08/04 10:45:40;;;;;;;;;;;;;;;25.46;86.99;101299.78;5030442;28;20380;-65
2022/08/04 10:48:12;;;;;;;;;;;;;;;25.24;89.20;101290.56;5030779;28;19912;-65
2022/08/04 10:50:41;;;;;;;;;;;;;;;25.07;91.47;101267.09;5030285;28;20320;-65
2022/08/04 10:53:10;;;;;;;;;;;;;;;24.97;92.01;101244.38;5029945;28;19912;-65
2022/08/04 10:55:39;;;;;;;;;;;;;;;24.90;96.53;101239.16;5030347;28;19909;-65
2022/08/04 10:58:06;;;;;;;;;;;;;;;24.88;97.88;101259.50;5030410;28;19913;-65
2022/08/04 11:00:34;;;;;;;;;;;;;;;24.99;98.13;101261.97;5029191;28;19913;-65
2022/08/04 11:03:17;;;;;;;;;;;;;;;25.26;100.00;101261.34;5030354;28;19912;-65
2022/08/04 11:05:55;;;;;;;;;;;;;;;25.64;100.00;101259.56;5029429;28;19971;-65
2022/08/04 11:08:23;;;;;;;;;;;;;;;26.04;95.93;101261.25;5030195;28;19913;-65
2022/08/04 11:10:59;;;;;;;;;;;;;;;26.23;93.09;101290.84;5030508;28;19962;-66
2022/08/04 11:13:27;;;;;;;;;;;;;;;26.23;88.18;101296.13;5030030;28;19908;-65
2022/08/04 11:15:56;;;;;;;;;;;;;;;26.11;88.12;101298.22;5029827;28;19924;-65
2022/08/04 11:18:39;;;;;;;;;;;;;;;25.97;87.48;101284.44;5029254;28;19916;-65
2022/08/04 11:21:15;;;;;;;;;;;;;;;25.77;85.91;101283.19;5029686;28;19908;-65
2022/08/04 11:23:43;;;;;;;;;;;;;;;25.62;85.25;101279.06;5029808;28;19913;-65
2022/08/04 11:26:12;;;;;;;;;;;;;;;25.44;85.58;101269.81;5029815;28;19959;-65
2022/08/04 11:28:42;;;;;;;;;;;;;;;25.36;86.97;101278.81;5029591;28;19990;-65
2022/08/04 11:31:11;;;;;;;;;;;;;;;25.33;90.39;101265.59;5029629;28;19967;-66
2022/08/04 11:33:45;;;;;;;;;;;;;;;25.37;89.13;101264.63;5029547;28;19913;-66
2022/08/04 11:36:23;;;;;;;;;;;;;;;25.50;89.31;101264.34;5029664;28;20313;-65
2022/08/04 11:38:55;;;;;;;;;;;;;;;25.70;89.33;101263.91;5029783;28;19909;-65
2022/08/04 11:41:35;;;;;;;;;;;;;;;26.00;87.62;101268.44;5029844;28;19916;-65
2022/08/04 11:44:03;;;;;;;;;;;;;;;26.32;86.42;101269.34;5029428;28;19913;-66
2022/08/04 11:46:28;;;;;;;;;;;;;;;26.70;84.40;101269.19;5029365;28;19920;-65
2022/08/04 11:49:02;;;;;;;;;;;;;;;26.88;77.89;101272.22;5029102;28;19913;-65
2022/08/04 11:51:27;;;;;;;;;;;;;;;26.98;72.51;101279.00;5029517;28;20361;-65
2022/08/04 11:53:53;;;;;;;;;;;;;;;27.22;75.62;101278.31;5029307;28;19916;-65
2022/08/04 11:56:18;;;;;;;;;;;;;;;27.43;72.32;101267.91;5028835;28;20034;-66
2022/08/04 11:58:44;;;;;;;;;;;;;;;27.42;69.46;101256.41;5028742;28;19916;-66
2022/08/04 12:01:27;;;;;;;;;;;;;;;27.37;70.57;101262.78;5028558;28;19909;-65
2022/08/04 12:03:55;;;;;;;;;;;;;;;27.26;72.02;101265.78;5028965;28;19974;-65
2022/08/04 12:06:32;;;;;;;;;;;;;;;27.21;71.52;101268.59;5029407;28;19909;-66
2022/08/04 12:09:17;;;;;;;;;;;;;;;27.40;71.89;101278.66;5029081;28;19913;-65
2022/08/04 12:11:42;;;;;;;;;;;;;;;27.63;72.14;101280.53;5029334;28;19975;-65
2022/08/04 12:14:22;;;;;;;;;;;;;;;27.78;71.93;101273.88;5028670;28;19972;-65
2022/08/04 12:16:54;;;;;;;;;;;;;;;27.85;69.80;101279.00;5028291;28;20183;-66
2022/08/04 12:19:25;;;;;;;;;;;;;;;27.92;70.72;101276.06;5028754;28;19919;-65
2022/08/04 12:21:53;;;;;;;;;;;;;;;27.82;69.14;101274.66;5028437;28;20292;-66
2022/08/04 12:24:37;;;;;;;;;;;;;;;27.72;70.19;101284.75;5028858;28;19913;-65
2022/08/04 12:27:16;;;;;;;;;;;;;;;27.55;67.77;101283.47;5028313;28;19909;-65
2022/08/04 12:29:44;;;;;;;;;;;;;;;27.45;70.64;101296.19;5028726;28;19909;-65
2022/08/04 12:32:15;;;;;;;;;;;;;;;27.33;68.26;101313.44;5028624;28;19913;-65
2022/08/04 12:34:51;;;;;;;;;;;;;;;27.23;70.53;101319.97;5028816;28;19920;-66
2022/08/04 12:37:32;;;;;;;;;;;;;;;27.14;69.92;101309.59;5028712;28;19951;-65
2022/08/04 12:40:00;;;;;;;;;;;;;;;27.06;71.81;101302.72;5029067;28;20353;-65
2022/08/04 12:42:40;;;;;;;;;;;;;;;26.97;72.12;101313.59;5027969;28;20288;-66
2022/08/04 12:45:06;;;;;;;;;;;;;;;26.96;73.16;101311.88;5028283;28;19997;-66
2022/08/04 12:47:34;;;;;;;;;;;;;;;26.91;72.61;101319.13;5028336;28;19999;-65
2022/08/04 12:50:00;;;;;;;;;;;;;;;26.89;72.10;101324.47;5027957;28;20351;-66
2022/08/04 12:52:26;;;;;;;;;;;;;;;26.86;72.42;101322.78;5028114;28;19979;-66
2022/08/04 12:54:53;;;;;;;;;;;;;;;26.79;72.10;101321.19;5028572;28;20337;-65
2022/08/04 12:57:20;;;;;;;;;;;;;;;26.80;73.64;101332.72;5027991;28;19908;-66